Terminal Aerodrome Forecast
Issued by NWS

Current Version | Previous Version | Graphics & Text | Print | Product List | Glossary On
Versions: 1 2 3 4 5 6 7 8 9 10 11 12 13 14 15 16 17 18 19 20 21
820
FTUS41 KILN 151514 AAA
TAFLCK
TAF AMD
KLCK 151514Z 1515/1612 06005KT P6SM FEW008 BKN040
     FM160000 05003KT P6SM SCT012 OVC050
     FM160800 08004KT 4SM BR BKN035
      AMD NOT SKED=

USA.gov is the U.S. government's official web portal to all federal, state and local government web resources and services.